SBMQ/MCP METAR and TAF weather

Enter ICAO airport designator
Station Type Date Time Source
SBMQ METAR 2019/05/19 20:00 UTC NOAA

SBMQ 192000Z 06010KT 9999 SCT018 FEW023TCU SCT100 30/27 Q1008


Station Type Date Time Source
SBMQ Decoded METAR 2019/05/19 20:00 UTC NOAA

Macapa, Brazil (SBMQ) 00-02N 050-03W
May 19, 2019 - 04:00 PM EDT / 2019.05.19 2000 UTC
Wind: from the ENE (060 degrees) at 12 MPH (10 KT):0
Visibility: greater than 7 mile(s):0
Sky conditions: partly cloudy
Weather: Towering cumulus clouds observed
Temperature: 86 F (30 C)
Heat index: 101.8 F (38.8 C):1
Dew Point: 80 F (27 C)
Relative Humidity: 84%
Pressure (altimeter): 29.77 in. Hg (1008 hPa)
ob: SBMQ 192000Z 06010KT 9999 SCT018 FEW023TCU SCT100 30/27 Q1008
cycle: 20

Station Type Date Time Source
SBMQ TAF 2019/05/19 18:33 UTC NOAA

TAF SBMQ 191600Z 1918/2018 03010KT 9999 BKN025 FEW030TCU TX31/1917Z TN24/2006Z
BECMG 1922/1924 36005KT SCT015
BECMG 2005/2007 33003KT SCT005
BECMG 2011/2013 03005KT SCT015
BECMG 2015/2017 06010KT SCT020 FEW025TCU
RMK PEH

Example: see airport list